Time;durP1;ratioP1;P1;durP2;ratioP2;P2;SDS_P1;SDS_P2;PMS_P1;PMS_P2;Temp;Humidity;BMP_temperature;BMP_pressure;BME280_temperature;BME280_humidity;BME280_pressure;Samples;Min_cycle;Max_cycle;Signal;HPM_P1;HPM_P2
2022/11/07 00:00:27;;;;;;;;;;;;;;;11.20;67.73;98992.66;5260961;28;19926;-77
2022/11/07 00:03:17;;;;;;;;;;;;;;;11.16;68.27;98996.59;5243503;28;20408;-72
2022/11/07 00:06:07;;;;;;;;;;;;;;;11.19;68.34;98993.66;5250545;28;19953;-76
2022/11/07 00:08:57;;;;;;;;;;;;;;;11.16;68.06;98990.44;5244329;28;20065;-76
2022/11/07 00:11:47;;;;;;;;;;;;;;;11.13;68.16;99004.88;5242977;28;19928;-76
2022/11/07 00:14:37;;;;;;;;;;;;;;;11.18;68.16;99015.84;5225374;28;20413;-75
2022/11/07 00:17:27;;;;;;;;;;;;;;;11.26;68.20;99018.63;5241077;28;20561;-75
2022/11/07 00:20:17;;;;;;;;;;;;;;;11.28;68.67;99011.31;5255350;28;19973;-75
2022/11/07 00:23:06;;;;;;;;;;;;;;;11.33;68.67;99015.38;5249107;28;19927;-73
2022/11/07 00:26:00;;;;;;;;;;;;;;;11.38;68.60;99021.06;5265379;28;20066;-75
2022/11/07 00:28:50;;;;;;;;;;;;;;;11.43;68.74;99029.44;5264876;28;19973;-75
2022/11/07 00:31:40;;;;;;;;;;;;;;;11.48;68.63;99032.47;5246771;28;19934;-77
2022/11/07 00:34:31;;;;;;;;;;;;;;;11.67;68.66;99021.72;5250538;28;20294;-76
2022/11/07 00:37:21;;;;;;;;;;;;;;;11.70;68.95;99025.91;5243379;28;20025;-77
2022/11/07 00:40:11;;;;;;;;;;;;;;;11.81;68.77;99025.69;5243665;28;19954;-76
2022/11/07 00:43:01;;;;;;;;;;;;;;;12.10;67.63;99029.97;5248129;28;19920;-75
2022/11/07 00:45:51;;;;;;;;;;;;;;;11.86;68.68;99027.94;5248448;28;19924;-75
2022/11/07 00:48:42;;;;;;;;;;;;;;;11.86;68.41;99035.91;5255592;28;19981;-76
2022/11/07 00:51:32;;;;;;;;;;;;;;;12.22;67.34;99032.25;5226741;28;20300;-75
2022/11/07 00:54:22;;;;;;;;;;;;;;;12.22;67.50;99036.75;5227811;28;20062;-77
2022/11/07 00:57:12;;;;;;;;;;;;;;;12.52;66.04;99035.47;5227277;28;19947;-75
2022/11/07 01:00:01;;;;;;;;;;;;;;;12.55;66.06;99043.16;5250156;28;20411;-76
2022/11/07 01:05:09;;;;;;;;;;;;;;;12.50;66.40;99041.94;5235731;28;19924;-75
2022/11/07 01:06:02;;;;;;;;;;;;;;;12.46;66.93;99041.41;5247651;28;20034;-76
2022/11/07 01:08:53;;;;;;;;;;;;;;;12.35;67.28;99044.28;5247862;28;19926;-76
2022/11/07 01:11:44;;;;;;;;;;;;;;;12.43;67.03;99041.72;5247211;28;20423;-77
2022/11/07 01:14:34;;;;;;;;;;;;;;;12.52;66.87;99032.00;5241429;28;19931;-75
2022/11/07 01:17:24;;;;;;;;;;;;;;;12.49;66.74;99035.78;5243501;28;19924;-75
2022/11/07 01:20:14;;;;;;;;;;;;;;;12.59;66.68;99044.50;5248623;28;19920;-76
2022/11/07 01:23:05;;;;;;;;;;;;;;;12.65;66.38;99035.06;5257310;28;19923;-75
2022/11/07 01:25:55;;;;;;;;;;;;;;;12.61;66.43;99036.34;5264289;28;19955;-76
2022/11/07 01:28:44;;;;;;;;;;;;;;;12.57;66.43;99030.50;5261002;28;19943;-76
2022/11/07 01:31:34;;;;;;;;;;;;;;;12.49;66.02;99034.97;5258930;28;19947;-76
2022/11/07 01:34:24;;;;;;;;;;;;;;;12.38;66.14;99033.34;5268633;28;19974;-76
2022/11/07 01:37:14;;;;;;;;;;;;;;;12.34;66.45;99034.66;5268766;28;19927;-74
2022/11/07 01:40:04;;;;;;;;;;;;;;;12.18;66.78;99044.16;5246100;28;19932;-77
2022/11/07 01:42:54;;;;;;;;;;;;;;;12.15;66.63;99036.53;5247060;28;19943;-77
2022/11/07 01:45:44;;;;;;;;;;;;;;;12.12;66.44;99042.13;5252528;28;19980;-74
2022/11/07 01:48:34;;;;;;;;;;;;;;;12.01;67.29;99038.84;5246891;28;19994;-77
2022/11/07 01:51:25;;;;;;;;;;;;;;;12.08;67.09;99035.44;5246298;28;19927;-77
2022/11/07 01:54:16;;;;;;;;;;;;;;;12.07;67.32;99039.09;5246894;28;19998;-75
2022/11/07 01:57:11;;;;;;;;;;;;;;;12.07;67.72;99043.56;5248060;28;20397;-76
2022/11/07 02:00:03;;;;;;;;;;;;;;;12.10;67.81;99048.59;5258748;28;20057;-76
2022/11/07 02:02:56;;;;;;;;;;;;;;;12.09;68.01;99041.59;5252973;28;20032;-76
2022/11/07 02:06:02;;;;;;;;;;;;;;;12.15;67.80;99033.88;5267640;28;20044;-75
2022/11/07 02:08:53;;;;;;;;;;;;;;;12.13;67.83;99045.63;5267397;28;20305;-77
2022/11/07 02:11:43;;;;;;;;;;;;;;;12.11;67.83;99045.75;5257484;28;19927;-76
2022/11/07 02:14:33;;;;;;;;;;;;;;;12.30;67.26;99039.44;5257270;28;20066;-75
2022/11/07 02:17:22;;;;;;;;;;;;;;;12.33;67.46;99027.69;5266531;28;19962;-77
2022/11/07 02:20:12;;;;;;;;;;;;;;;12.32;67.62;99034.00;5267485;28;19920;-77
2022/11/07 02:23:07;;;;;;;;;;;;;;;12.38;67.12;99036.00;5267426;28;19965;-77
2022/11/07 02:25:57;;;;;;;;;;;;;;;12.49;66.87;99021.66;5261590;28;20382;-76
2022/11/07 02:28:48;;;;;;;;;;;;;;;12.17;67.71;99018.56;5257938;28;20010;-77
2022/11/07 02:31:38;;;;;;;;;;;;;;;12.35;67.19;99025.69;5265756;28;19985;-75
2022/11/07 02:34:28;;;;;;;;;;;;;;;12.33;67.25;99025.03;5267614;28;19926;-76
2022/11/07 02:37:21;;;;;;;;;;;;;;;12.28;67.03;99021.97;5251713;28;20396;-73
2022/11/07 02:40:12;;;;;;;;;;;;;;;12.35;66.81;99031.88;5248764;28;20321;-75
2022/11/07 02:43:02;;;;;;;;;;;;;;;12.38;66.70;99028.03;5244352;28;19920;-76
2022/11/07 02:45:53;;;;;;;;;;;;;;;12.29;67.32;99026.31;5262090;28;20076;-75
2022/11/07 02:48:45;;;;;;;;;;;;;;;12.25;67.72;99019.63;5266688;28;19931;-77
2022/11/07 02:51:35;;;;;;;;;;;;;;;12.27;67.61;99022.97;5251275;28;19927;-76
2022/11/07 02:54:24;;;;;;;;;;;;;;;12.42;66.88;99022.28;5266136;28;20297;-75
2022/11/07 02:57:14;;;;;;;;;;;;;;;12.44;66.96;99024.75;5257158;28;20154;-75
2022/11/07 03:00:05;;;;;;;;;;;;;;;12.44;66.80;99020.28;5258730;28;19931;-77
2022/11/07 03:02:55;;;;;;;;;;;;;;;12.50;66.50;99026.81;5234309;28;20070;-77
2022/11/07 03:05:46;;;;;;;;;;;;;;;12.47;66.39;99021.81;5245424;28;20395;-77
2022/11/07 03:08:35;;;;;;;;;;;;;;;12.46;66.73;99020.13;5245761;28;20011;-76
2022/11/07 03:11:26;;;;;;;;;;;;;;;12.50;67.12;99024.16;5245525;28;19928;-76
2022/11/07 03:14:15;;;;;;;;;;;;;;;12.48;66.58;99017.31;5246983;28;19974;-76
2022/11/07 03:17:05;;;;;;;;;;;;;;;12.47;67.34;99013.81;5258459;28;19927;-76
2022/11/07 03:19:55;;;;;;;;;;;;;;;12.52;66.78;99014.19;5266207;28;20002;-74
2022/11/07 03:22:45;;;;;;;;;;;;;;;12.49;66.83;99019.84;5266489;28;20000;-76
2022/11/07 03:25:35;;;;;;;;;;;;;;;12.56;66.62;99028.03;5251196;28;19920;-76
2022/11/07 03:28:25;;;;;;;;;;;;;;;12.61;66.26;99031.88;5251943;28;20013;-77
2022/11/07 03:31:15;;;;;;;;;;;;;;;12.50;67.01;99036.63;5265097;28;20377;-76
2022/11/07 03:34:04;;;;;;;;;;;;;;;12.37;67.46;99037.84;5251372;28;19920;-77
2022/11/07 03:36:54;;;;;;;;;;;;;;;12.37;67.58;99042.34;5265903;28;20005;-76
2022/11/07 03:39:45;;;;;;;;;;;;;;;12.39;67.73;99035.88;5252539;28;20022;-76
2022/11/07 03:42:38;;;;;;;;;;;;;;;12.41;67.61;99035.72;5238313;28;19943;-77
2022/11/07 03:45:28;;;;;;;;;;;;;;;12.36;67.66;99038.00;5265947;28;20027;-75
2022/11/07 03:48:17;;;;;;;;;;;;;;;12.34;67.42;99048.78;5265443;28;19970;-76
2022/11/07 03:51:08;;;;;;;;;;;;;;;12.35;67.26;99041.63;5263798;28;19938;-76
2022/11/07 03:53:58;;;;;;;;;;;;;;;12.36;67.60;99043.34;5263994;28;19920;-76
2022/11/07 03:56:48;;;;;;;;;;;;;;;12.70;66.29;99051.38;5254846;28;20381;-77
2022/11/07 03:59:37;;;;;;;;;;;;;;;12.64;66.44;99052.00;5227941;28;19947;-75
2022/11/07 04:02:27;;;;;;;;;;;;;;;12.77;66.15;99052.44;5243999;28;20384;-76
2022/11/07 04:05:18;;;;;;;;;;;;;;;12.91;65.57;99051.88;5244736;28;20413;-75
2022/11/07 04:08:08;;;;;;;;;;;;;;;12.98;65.59;99060.06;5242506;28;19927;-76
2022/11/07 04:10:57;;;;;;;;;;;;;;;13.06;65.46;99065.41;5246524;28;19931;-77
2022/11/07 04:20:15;;;;;;;;;;;;;;;13.20;64.91;99069.31;5238961;28;19927;-75
2022/11/07 04:23:05;;;;;;;;;;;;;;;13.11;65.27;99075.59;5244308;28;19924;-76
2022/11/07 04:29:04;;;;;;;;;;;;;;;13.20;64.88;99076.47;5249435;28;19924;-75
2022/11/07 04:31:54;;;;;;;;;;;;;;;13.22;65.22;99071.84;5250567;28;19973;-76
2022/11/07 04:34:44;;;;;;;;;;;;;;;13.08;64.54;99046.63;5256040;28;19926;-76
2022/11/07 04:37:33;;;;;;;;;;;;;;;13.20;64.93;99082.63;5258016;28;20021;-77
2022/11/07 04:40:24;;;;;;;;;;;;;;;13.19;64.90;99074.81;5246303;28;20613;-76
2022/11/07 04:43:14;;;;;;;;;;;;;;;13.16;65.56;99078.63;5244091;28;19947;-75
2022/11/07 04:46:04;;;;;;;;;;;;;;;13.23;65.02;99078.81;5228811;28;20108;-76
2022/11/07 04:48:54;;;;;;;;;;;;;;;13.29;64.54;99079.03;5251093;28;20013;-75
2022/11/07 04:51:43;;;;;;;;;;;;;;;13.34;64.48;99082.09;5243552;28;19927;-76
2022/11/07 04:54:33;;;;;;;;;;;;;;;13.24;64.66;99088.47;5261022;28;20456;-76
2022/11/07 04:57:24;;;;;;;;;;;;;;;13.09;65.25;99088.22;5243076;28;20386;-76
2022/11/07 05:00:14;;;;;;;;;;;;;;;13.23;64.50;99092.97;5252091;28;19951;-76
2022/11/07 05:03:04;;;;;;;;;;;;;;;13.20;64.50;99082.63;5246121;28;19935;-76
2022/11/07 05:05:55;;;;;;;;;;;;;;;13.16;64.59;99084.78;5243748;28;19927;-76
2022/11/07 05:08:44;;;;;;;;;;;;;;;13.20;64.53;99095.09;5243492;28;19942;-76
2022/11/07 05:11:34;;;;;;;;;;;;;;;13.21;64.50;99096.75;5228292;28;19920;-75
2022/11/07 05:14:24;;;;;;;;;;;;;;;13.15;64.16;99088.44;5231903;28;20289;-76
2022/11/07 05:17:14;;;;;;;;;;;;;;;13.14;64.58;99096.56;5245274;28;19966;-76
2022/11/07 05:20:04;;;;;;;;;;;;;;;13.17;64.93;99098.91;5243438;28;19943;-76
2022/11/07 05:26:05;;;;;;;;;;;;;;;13.23;64.24;99100.94;5243357;28;19924;-76
2022/11/07 05:28:54;;;;;;;;;;;;;;;13.26;64.00;99100.66;5252728;28;19927;-77
2022/11/07 05:31:44;;;;;;;;;;;;;;;13.14;64.38;99097.44;5249130;28;20360;-75
2022/11/07 05:34:34;;;;;;;;;;;;;;;13.02;64.79;99098.69;5219606;28;20051;-76
2022/11/07 05:37:24;;;;;;;;;;;;;;;13.00;64.82;99110.47;5244622;28;20413;-76
2022/11/07 05:40:14;;;;;;;;;;;;;;;12.97;64.94;99100.97;5246848;28;19926;-77
2022/11/07 05:43:05;;;;;;;;;;;;;;;13.12;63.87;99094.06;5247958;28;19925;-75
2022/11/07 05:45:59;;;;;;;;;;;;;;;12.92;64.79;99095.28;5246162;28;19928;-76
2022/11/07 05:48:49;;;;;;;;;;;;;;;12.94;64.65;99099.44;5236655;28;20396;-76
2022/11/07 05:51:42;;;;;;;;;;;;;;;12.80;65.39;99093.84;5221276;28;19927;-75
2022/11/07 05:54:32;;;;;;;;;;;;;;;13.00;64.11;99097.16;5226694;28;19928;-75
2022/11/07 05:57:22;;;;;;;;;;;;;;;12.82;64.59;99097.22;5230038;28;20464;-75
2022/11/07 06:00:12;;;;;;;;;;;;;;;12.65;65.02;99101.59;5256774;28;20089;-77
2022/11/07 06:03:02;;;;;;;;;;;;;;;12.64;64.93;99100.72;5244614;28;19964;-76
2022/11/07 06:05:52;;;;;;;;;;;;;;;12.36;65.52;99091.19;5231506;28;19927;-76
2022/11/07 06:08:42;;;;;;;;;;;;;;;12.44;65.75;99105.38;5243357;28;19932;-72
2022/11/07 06:11:33;;;;;;;;;;;;;;;12.43;65.75;99105.53;5245832;28;20007;-77
2022/11/07 06:14:23;;;;;;;;;;;;;;;12.35;66.16;99116.09;5233782;28;19928;-78
2022/11/07 06:17:13;;;;;;;;;;;;;;;12.38;66.14;99115.78;5233348;28;19920;-76
2022/11/07 06:20:03;;;;;;;;;;;;;;;12.41;66.05;99115.47;5247162;28;20068;-75
2022/11/07 06:23:01;;;;;;;;;;;;;;;12.45;66.19;99116.88;5246465;28;19926;-78
2022/11/07 06:25:51;;;;;;;;;;;;;;;12.49;66.23;99122.72;5247608;28;19926;-74
2022/11/07 06:28:41;;;;;;;;;;;;;;;12.45;66.78;99116.88;5251361;28;20045;-76
2022/11/07 06:31:31;;;;;;;;;;;;;;;12.45;66.83;99128.34;5238910;28;19924;-74
2022/11/07 06:34:20;;;;;;;;;;;;;;;12.51;66.38;99129.53;5238877;28;19927;-75
2022/11/07 06:37:10;;;;;;;;;;;;;;;12.50;66.60;99121.72;5229936;28;19973;-75
2022/11/07 06:40:00;;;;;;;;;;;;;;;12.56;66.50;99132.59;5246366;28;20556;-73
2022/11/07 06:42:51;;;;;;;;;;;;;;;12.53;66.49;99130.22;5247147;28;19974;-76
2022/11/07 06:45:41;;;;;;;;;;;;;;;12.55;66.41;99132.72;5248322;28;19935;-76
2022/11/07 06:48:32;;;;;;;;;;;;;;;12.43;66.79;99140.13;5245233;28;20409;-77
2022/11/07 06:51:22;;;;;;;;;;;;;;;12.37;66.72;99130.91;5242634;28;19928;-76
2022/11/07 06:54:12;;;;;;;;;;;;;;;12.33;67.21;99139.34;5229619;28;19943;-75
2022/11/07 06:57:02;;;;;;;;;;;;;;;12.35;67.20;99130.25;5251484;28;20062;-76
2022/11/07 06:59:51;;;;;;;;;;;;;;;12.35;67.04;99134.69;5247251;28;20433;-75
2022/11/07 07:02:41;;;;;;;;;;;;;;;12.40;67.04;99140.41;5244376;28;20282;-76
2022/11/07 07:05:47;;;;;;;;;;;;;;;12.55;67.07;99140.69;5244836;28;19943;-76
2022/11/07 07:08:37;;;;;;;;;;;;;;;12.70;66.64;99147.16;5228208;28;20034;-75
2022/11/07 07:11:26;;;;;;;;;;;;;;;12.74;66.63;99147.69;5244272;28;20018;-75
2022/11/07 07:14:16;;;;;;;;;;;;;;;12.75;66.51;99149.34;5245086;28;19943;-74
2022/11/07 07:17:06;;;;;;;;;;;;;;;12.83;66.47;99155.59;5230584;28;19926;-76
2022/11/07 07:19:56;;;;;;;;;;;;;;;12.98;66.14;99155.00;5241952;28;19920;-76
2022/11/07 07:22:46;;;;;;;;;;;;;;;12.92;66.92;99161.81;5241478;28;19927;-76
2022/11/07 07:25:42;;;;;;;;;;;;;;;13.02;66.09;99162.56;5242699;28;20317;-75
2022/11/07 07:28:32;;;;;;;;;;;;;;;13.11;66.41;99161.63;5229695;28;19927;-75
2022/11/07 07:31:24;;;;;;;;;;;;;;;12.91;66.38;99139.69;5259947;28;19920;-77
2022/11/07 07:34:14;;;;;;;;;;;;;;;13.10;66.68;99170.59;5226534;28;20619;-76
2022/11/07 07:37:04;;;;;;;;;;;;;;;13.12;66.77;99165.94;5196353;28;19931;-77
2022/11/07 07:39:54;;;;;;;;;;;;;;;13.21;66.52;99176.66;5239536;28;19947;-76
2022/11/07 07:42:44;;;;;;;;;;;;;;;13.32;66.35;99168.44;5244235;28;20037;-76
2022/11/07 07:45:33;;;;;;;;;;;;;;;13.28;66.73;99162.59;5228748;28;19970;-77
2022/11/07 07:48:23;;;;;;;;;;;;;;;13.56;65.66;99163.25;5252148;28;20013;-74
2022/11/07 07:51:13;;;;;;;;;;;;;;;13.66;66.12;99171.13;5243010;28;19942;-75
2022/11/07 07:54:03;;;;;;;;;;;;;;;14.06;63.35;99173.13;5243674;28;19920;-74
2022/11/07 07:56:53;;;;;;;;;;;;;;;14.08;64.25;99165.81;5243238;28;20010;-74
2022/11/07 07:59:42;;;;;;;;;;;;;;;14.14;64.96;99169.66;5242622;28;19920;-74
2022/11/07 08:02:33;;;;;;;;;;;;;;;14.36;63.81;99173.53;5249934;28;19931;-74
2022/11/07 08:05:23;;;;;;;;;;;;;;;14.66;63.14;99158.75;5258766;28;19934;-75
2022/11/07 08:08:13;;;;;;;;;;;;;;;14.70;62.77;99165.44;5264392;28;19927;-74
2022/11/07 08:11:04;;;;;;;;;;;;;;;14.75;63.39;99167.63;5256240;28;19946;-73
2022/11/07 08:13:54;;;;;;;;;;;;;;;14.73;62.74;99177.59;5247064;28;19927;-75
2022/11/07 08:16:49;;;;;;;;;;;;;;;14.82;62.97;99171.28;5257049;28;19927;-75
2022/11/07 08:19:39;;;;;;;;;;;;;;;14.65;62.53;99177.63;5263558;28;19977;-75
2022/11/07 08:22:29;;;;;;;;;;;;;;;14.72;62.27;99181.28;5263711;28;20013;-75
2022/11/07 08:25:19;;;;;;;;;;;;;;;14.85;62.88;99183.47;5263771;28;19941;-75
2022/11/07 08:28:09;;;;;;;;;;;;;;;14.85;62.00;99192.31;5264321;28;19920;-75
2022/11/07 08:31:00;;;;;;;;;;;;;;;14.77;62.44;99181.63;5264307;28;19927;-75
2022/11/07 08:33:50;;;;;;;;;;;;;;;14.85;62.26;99186.97;5265437;28;19920;-75
2022/11/07 08:36:40;;;;;;;;;;;;;;;14.74;62.41;99187.31;5264715;28;20011;-75
2022/11/07 08:39:30;;;;;;;;;;;;;;;14.72;62.93;99186.63;5245930;28;19928;-75
2022/11/07 08:42:20;;;;;;;;;;;;;;;14.68;62.16;99187.97;5243880;28;19927;-75
2022/11/07 08:45:10;;;;;;;;;;;;;;;14.80;62.91;99178.59;5244577;28;20252;-75
2022/11/07 08:47:59;;;;;;;;;;;;;;;15.01;61.64;99186.97;5243069;28;20025;-75
2022/11/07 08:50:53;;;;;;;;;;;;;;;15.14;61.05;99190.97;5243299;28;20019;-75
2022/11/07 08:53:43;;;;;;;;;;;;;;;15.21;61.80;99189.28;5244213;28;20463;-75
2022/11/07 08:56:33;;;;;;;;;;;;;;;15.17;62.29;99193.31;5242347;28;19970;-75
2022/11/07 08:59:23;;;;;;;;;;;;;;;15.11;61.38;99192.13;5243000;28;20370;-75
2022/11/07 09:02:13;;;;;;;;;;;;;;;15.44;60.92;99192.09;5241871;28;20109;-75
2022/11/07 09:05:23;;;;;;;;;;;;;;;15.63;60.02;99194.41;5246726;28;20001;-75
2022/11/07 09:08:13;;;;;;;;;;;;;;;15.60;60.16;99199.25;5246550;28;19927;-75
2022/11/07 09:11:03;;;;;;;;;;;;;;;15.68;59.27;99194.72;5246470;28;19920;-75
2022/11/07 09:13:54;;;;;;;;;;;;;;;15.68;59.79;99192.06;5247565;28;19924;-75
2022/11/07 09:16:44;;;;;;;;;;;;;;;15.48;61.59;99196.09;5234122;28;20010;-75
2022/11/07 09:19:33;;;;;;;;;;;;;;;15.63;61.32;99196.22;5226653;28;19932;-75
2022/11/07 09:22:23;;;;;;;;;;;;;;;15.53;61.87;99193.75;5246996;28;19947;-75
2022/11/07 09:25:13;;;;;;;;;;;;;;;15.58;61.48;99207.44;5247597;28;19962;-75
2022/11/07 09:28:03;;;;;;;;;;;;;;;15.59;61.10;99208.25;5246597;28;19931;-75
2022/11/07 09:30:54;;;;;;;;;;;;;;;15.61;61.79;99214.28;5233361;28;19928;-76
2022/11/07 09:33:44;;;;;;;;;;;;;;;15.60;60.94;99216.13;5211407;28;20425;-76
2022/11/07 09:36:34;;;;;;;;;;;;;;;15.56;59.18;99220.13;5225815;28;19920;-75
2022/11/07 09:39:24;;;;;;;;;;;;;;;15.67;60.58;99221.66;5220920;28;19974;-76
2022/11/07 09:42:16;;;;;;;;;;;;;;;15.95;57.35;99222.03;5231089;28;19991;-76
2022/11/07 09:45:10;;;;;;;;;;;;;;;15.95;58.95;99214.84;5225070;28;19928;-76
2022/11/07 09:48:04;;;;;;;;;;;;;;;16.07;56.81;99219.84;5231376;28;19932;-76
2022/11/07 09:50:54;;;;;;;;;;;;;;;16.11;58.00;99213.97;5231455;28;19965;-76
2022/11/07 09:53:46;;;;;;;;;;;;;;;16.03;57.64;99218.53;5245895;28;20018;-76
2022/11/07 09:56:38;;;;;;;;;;;;;;;16.19;57.79;99208.59;5246677;28;19982;-76
2022/11/07 09:59:36;;;;;;;;;;;;;;;16.30;57.79;99211.88;5228975;28;20310;-76
2022/11/07 10:02:29;;;;;;;;;;;;;;;16.26;56.64;99210.53;5210566;28;20530;-76
2022/11/07 10:05:39;;;;;;;;;;;;;;;16.48;56.80;99206.25;5226393;28;19932;-76
2022/11/07 10:09:08;;;;;;;;;;;;;;;16.34;58.24;99203.31;5225763;28;19928;-76
2022/11/07 10:12:06;;;;;;;;;;;;;;;16.43;56.43;99201.44;5141450;28;19926;-76
2022/11/07 10:15:02;;;;;;;;;;;;;;;16.48;56.67;99212.44;5141537;28;19938;-76
2022/11/07 10:18:18;;;;;;;;;;;;;;;16.51;55.29;99200.53;5224640;28;19969;-77
2022/11/07 10:21:30;;;;;;;;;;;;;;;16.61;55.67;99201.16;5225414;28;19929;-76
2022/11/07 10:24:31;;;;;;;;;;;;;;;16.61;56.46;99204.66;5225476;28;19928;-77
2022/11/07 10:27:22;;;;;;;;;;;;;;;16.63;54.60;99205.31;5210604;28;20290;-77
2022/11/07 10:30:14;;;;;;;;;;;;;;;16.44;56.44;99192.38;5210056;28;20003;-76
2022/11/07 10:33:12;;;;;;;;;;;;;;;16.40;57.04;99197.25;5217087;28;19927;-75
2022/11/07 10:36:21;;;;;;;;;;;;;;;16.66;56.33;99194.25;5230829;28;20025;-76
2022/11/07 10:39:16;;;;;;;;;;;;;;;16.64;54.95;99196.28;5244773;28;19926;-76
2022/11/07 10:42:08;;;;;;;;;;;;;;;16.68;55.29;99196.75;5229926;28;20435;-76
2022/11/07 10:44:58;;;;;;;;;;;;;;;16.72;55.42;99183.84;5245829;28;19934;-76
2022/11/07 10:47:56;;;;;;;;;;;;;;;16.99;53.43;99182.50;5245535;28;19970;-76
2022/11/07 10:50:50;;;;;;;;;;;;;;;17.05;53.20;99181.75;5245390;28;20045;-76
2022/11/07 10:53:43;;;;;;;;;;;;;;;16.49;55.48;99176.66;5224885;28;19928;-76
2022/11/07 10:56:43;;;;;;;;;;;;;;;16.99;55.20;99174.47;5225531;28;19925;-75
2022/11/07 10:59:34;;;;;;;;;;;;;;;17.03;55.28;99173.09;5225723;28;20444;-76
2022/11/07 11:02:28;;;;;;;;;;;;;;;17.25;53.26;99166.84;5226816;28;19928;-77
2022/11/07 11:05:39;;;;;;;;;;;;;;;17.04;55.39;99172.06;5226404;28;20413;-76
2022/11/07 11:08:34;;;;;;;;;;;;;;;17.45;53.21;99166.31;5221242;28;19925;-76
2022/11/07 11:11:32;;;;;;;;;;;;;;;17.21;54.92;99173.56;5235895;28;20102;-74
2022/11/07 11:14:22;;;;;;;;;;;;;;;17.38;54.75;99164.38;5243663;28;20060;-75
2022/11/07 11:17:24;;;;;;;;;;;;;;;17.66;51.98;99166.41;5240148;28;19935;-75
2022/11/07 11:20:30;;;;;;;;;;;;;;;17.45;52.00;99164.47;5235461;28;20282;-76
2022/11/07 11:23:22;;;;;;;;;;;;;;;17.34;53.00;99159.56;5225558;28;19921;-77
2022/11/07 11:26:23;;;;;;;;;;;;;;;17.48;53.32;99164.13;5226086;28;20570;-75
2022/11/07 11:29:30;;;;;;;;;;;;;;;17.74;52.93;99168.16;5241186;28;19969;-74
2022/11/07 11:32:34;;;;;;;;;;;;;;;17.68;52.12;99175.13;5224047;28;20544;-75
2022/11/07 11:35:27;;;;;;;;;;;;;;;17.23;54.68;99160.00;5245061;28;19959;-75
2022/11/07 11:38:31;;;;;;;;;;;;;;;17.65;54.12;99159.41;5240081;28;20019;-75
2022/11/07 11:41:34;;;;;;;;;;;;;;;17.87;51.26;99156.81;5208475;28;19921;-75
2022/11/07 11:44:38;;;;;;;;;;;;;;;17.67;51.03;99151.97;5195301;28;19925;-75
2022/11/07 11:47:40;;;;;;;;;;;;;;;17.34;51.79;99152.34;5242826;28;19931;-76
2022/11/07 11:50:44;;;;;;;;;;;;;;;17.63;51.38;99150.69;5244515;28;19955;-75
2022/11/07 11:53:34;;;;;;;;;;;;;;;17.13;53.52;99145.03;5244954;28;19927;-75
2022/11/07 11:56:29;;;;;;;;;;;;;;;17.21;53.31;99152.13;5225928;28;19983;-74
2022/11/07 11:59:36;;;;;;;;;;;;;;;17.01;54.44;99153.66;5223503;28;20138;-75
2022/11/07 12:02:47;;;;;;;;;;;;;;;16.93;54.99;99153.75;5215220;28;19921;-75
2022/11/07 12:05:45;;;;;;;;;;;;;;;16.98;54.94;99148.69;5229255;28;20231;-75
2022/11/07 12:08:41;;;;;;;;;;;;;;;17.19;54.57;99150.69;5237098;28;20468;-74
2022/11/07 12:11:42;;;;;;;;;;;;;;;16.94;55.33;99150.06;5232793;28;19920;-75
2022/11/07 12:14:38;;;;;;;;;;;;;;;16.72;55.61;99154.38;5233953;28;19927;-74
2022/11/07 12:17:34;;;;;;;;;;;;;;;16.79;55.55;99156.22;5229485;28;19935;-74
2022/11/07 12:20:24;;;;;;;;;;;;;;;16.78;56.67;99151.84;5229297;28;19927;-75
2022/11/07 12:23:19;;;;;;;;;;;;;;;16.82;55.84;99146.97;5223836;28;19920;-75
2022/11/07 12:26:14;;;;;;;;;;;;;;;17.09;55.68;99137.53;5226332;28;19925;-75
2022/11/07 12:29:03;;;;;;;;;;;;;;;17.23;56.55;99141.25;5222581;28;19939;-75
2022/11/07 12:32:03;;;;;;;;;;;;;;;17.22;55.69;99140.44;5226991;28;20380;-74
2022/11/07 12:35:12;;;;;;;;;;;;;;;17.28;55.34;99136.16;5217105;28;19983;-74
2022/11/07 12:38:02;;;;;;;;;;;;;;;17.51;55.76;99131.53;5226634;28;20019;-75
2022/11/07 12:40:55;;;;;;;;;;;;;;;17.30;56.07;99100.13;5235461;28;19935;-75
2022/11/07 12:43:51;;;;;;;;;;;;;;;17.48;55.28;99131.09;5236960;28;20209;-74
2022/11/07 12:46:49;;;;;;;;;;;;;;;17.40;54.81;99129.34;5235784;28;20399;-74
2022/11/07 12:49:48;;;;;;;;;;;;;;;17.58;54.99;99137.00;5236829;28;19951;-75
2022/11/07 12:52:45;;;;;;;;;;;;;;;17.52;54.24;99132.41;5247771;28;20565;-75
2022/11/07 12:55:50;;;;;;;;;;;;;;;17.42;54.96;99127.31;5221146;28;20015;-75
2022/11/07 12:58:41;;;;;;;;;;;;;;;17.66;55.88;99136.91;5233313;28;20058;-75
2022/11/07 13:01:37;;;;;;;;;;;;;;;17.79;55.29;99129.09;5232808;28;19932;-74
2022/11/07 13:04:37;;;;;;;;;;;;;;;18.09;52.07;99129.03;5231310;28;19920;-75
2022/11/07 13:07:31;;;;;;;;;;;;;;;17.59;53.90;99125.28;5217561;28;19993;-75
2022/11/07 13:10:35;;;;;;;;;;;;;;;17.97;54.02;99120.63;5228210;28;20003;-75
2022/11/07 13:13:43;;;;;;;;;;;;;;;17.89;53.31;99128.78;5230925;28;19935;-74
2022/11/07 13:16:35;;;;;;;;;;;;;;;17.95;51.62;99120.00;5226562;28;19928;-75
2022/11/07 13:19:30;;;;;;;;;;;;;;;17.78;54.29;99122.06;5227955;28;19935;-75
2022/11/07 13:22:29;;;;;;;;;;;;;;;17.91;51.82;99121.38;5224740;28;19931;-74
2022/11/07 13:25:24;;;;;;;;;;;;;;;17.74;51.59;99123.41;5218498;28;21459;-74
2022/11/07 13:28:25;;;;;;;;;;;;;;;17.45;52.93;99124.28;5221194;28;19997;-74
2022/11/07 13:31:30;;;;;;;;;;;;;;;17.77;51.70;99120.38;5219448;28;19928;-74
2022/11/07 13:34:23;;;;;;;;;;;;;;;17.64;51.37;99122.84;5235685;28;19928;-75
2022/11/07 13:37:18;;;;;;;;;;;;;;;17.83;51.78;99119.63;5240428;28;19966;-75
2022/11/07 13:40:20;;;;;;;;;;;;;;;17.76;51.74;99121.41;5234332;28;19928;-74
2022/11/07 13:43:18;;;;;;;;;;;;;;;17.44;50.85;99125.25;5219282;28;20353;-74
2022/11/07 13:46:27;;;;;;;;;;;;;;;17.55;51.38;99124.00;5235503;28;20405;-75
2022/11/07 13:49:25;;;;;;;;;;;;;;;17.68;52.20;99117.94;5232114;28;19948;-74
2022/11/07 13:52:21;;;;;;;;;;;;;;;17.49;52.27;99119.38;5234584;28;19920;-74
2022/11/07 13:55:15;;;;;;;;;;;;;;;17.68;51.82;99110.75;5231870;28;20318;-75
2022/11/07 13:58:07;;;;;;;;;;;;;;;17.43;51.68;99120.94;5231970;28;20431;-75
2022/11/07 14:01:08;;;;;;;;;;;;;;;17.53;52.37;99109.94;5214279;28;20430;-75
2022/11/07 14:03:58;;;;;;;;;;;;;;;17.55;51.96;99113.28;5218219;28;19945;-74
2022/11/07 14:06:49;;;;;;;;;;;;;;;17.59;52.93;99117.22;5225544;28;19989;-75
2022/11/07 14:09:39;;;;;;;;;;;;;;;17.64;52.01;99111.31;5228532;28;20106;-75
2022/11/07 14:12:29;;;;;;;;;;;;;;;17.62;52.42;99116.88;5213971;28;19935;-74
2022/11/07 14:15:19;;;;;;;;;;;;;;;17.57;51.56;99113.91;5233662;28;19951;-74
2022/11/07 14:18:12;;;;;;;;;;;;;;;17.54;51.75;99116.94;5232021;28;19971;-74
2022/11/07 14:21:03;;;;;;;;;;;;;;;17.50;54.27;99126.38;5232436;28;20050;-74
2022/11/07 14:23:53;;;;;;;;;;;;;;;17.36;53.75;99123.50;5237286;28;19928;-75
2022/11/07 14:26:43;;;;;;;;;;;;;;;17.27;54.58;99123.78;5220367;28;19920;-74
2022/11/07 14:29:33;;;;;;;;;;;;;;;17.21;55.30;99119.16;5227972;28;19924;-74
2022/11/07 14:32:23;;;;;;;;;;;;;;;17.17;54.32;99124.06;5224245;28;19943;-75
2022/11/07 14:35:19;;;;;;;;;;;;;;;17.05;54.37;99126.34;5227762;28;20445;-75
2022/11/07 14:38:11;;;;;;;;;;;;;;;16.95;54.38;99130.28;5222845;28;19987;-74
2022/11/07 14:41:01;;;;;;;;;;;;;;;16.88;54.73;99138.22;5229968;28;19928;-74
2022/11/07 14:43:51;;;;;;;;;;;;;;;16.83;55.04;99130.72;5231505;28;20416;-75
2022/11/07 14:46:42;;;;;;;;;;;;;;;16.72;56.33;99136.50;5232829;28;19928;-74
2022/11/07 14:49:43;;;;;;;;;;;;;;;16.66;57.81;99134.53;5232053;28;19979;-74
2022/11/07 14:52:39;;;;;;;;;;;;;;;16.59;58.14;99131.75;5232284;28;20396;-75
2022/11/07 14:55:35;;;;;;;;;;;;;;;16.56;57.79;99129.41;5236658;28;19965;-74
2022/11/07 14:58:26;;;;;;;;;;;;;;;16.54;57.99;99135.94;5229112;28;19920;-74
2022/11/07 15:01:28;;;;;;;;;;;;;;;16.56;58.13;99132.09;5217732;28;20083;-75
2022/11/07 15:04:26;;;;;;;;;;;;;;;16.56;58.96;99128.59;5224877;28;19946;-74
2022/11/07 15:07:24;;;;;;;;;;;;;;;16.41;59.49;99134.69;5226291;28;20383;-74
2022/11/07 15:10:22;;;;;;;;;;;;;;;16.38;59.91;99128.88;5222774;28;20228;-74
2022/11/07 15:13:24;;;;;;;;;;;;;;;16.35;60.83;99127.38;5227048;28;19927;-74